Time;durP1;ratioP1;P1;durP2;ratioP2;P2;SDS_P1;SDS_P2;PMS_P1;PMS_P2;Temp;Humidity;BMP_temperature;BMP_pressure;BME280_temperature;BME280_humidity;BME280_pressure;Samples;Min_cycle;Max_cycle;Signal;HPM_P1;HPM_P2
2022/11/15 00:02:04;;;;;;;29.60;20.93;;;;;;;6.96;100.00;100710.72;5286463;28;20067;-72
2022/11/15 00:04:35;;;;;;;26.33;20.77;;;;;;;7.07;100.00;100724.97;5278156;28;20037;-72
2022/11/15 00:07:06;;;;;;;24.20;19.80;;;;;;;7.11;100.00;100723.91;5294909;28;20075;-73
2022/11/15 00:09:38;;;;;;;26.30;18.87;;;;;;;7.14;100.00;100728.97;5298278;28;20832;-72
2022/11/15 00:12:09;;;;;;;27.27;21.07;;;;;;;7.18;100.00;100725.31;5298671;28;20043;-72
2022/11/15 00:14:40;;;;;;;25.00;18.37;;;;;;;7.26;100.00;100728.38;5296197;28;20028;-73
2022/11/15 00:17:12;;;;;;;25.60;20.63;;;;;;;7.28;100.00;100725.69;5299225;28;20069;-73
2022/11/15 00:19:43;;;;;;;25.17;19.30;;;;;;;7.26;100.00;100717.13;5298650;28;20047;-72
2022/11/15 00:22:14;;;;;;;30.50;21.70;;;;;;;7.35;100.00;100727.09;5300467;28;20032;-72
2022/11/15 00:24:45;;;;;;;25.60;19.47;;;;;;;7.41;100.00;100727.72;5296974;28;20029;-72
2022/11/15 00:27:17;;;;;;;29.80;20.57;;;;;;;7.43;100.00;100728.50;5296777;28;20051;-73
2022/11/15 00:29:48;;;;;;;24.47;19.40;;;;;;;7.45;100.00;100724.88;5297184;28;20060;-72
2022/11/15 00:32:19;;;;;;;21.67;18.13;;;;;;;7.46;100.00;100721.38;5297575;28;20036;-72
2022/11/15 00:34:50;;;;;;;26.57;19.57;;;;;;;7.47;100.00;100725.66;5298641;28;20103;-73
2022/11/15 00:37:22;;;;;;;28.60;18.93;;;;;;;7.50;100.00;100720.28;5298975;28;20371;-73
2022/11/15 00:39:53;;;;;;;24.07;18.93;;;;;;;7.58;100.00;100724.28;5298446;28;20023;-71
2022/11/15 00:42:24;;;;;;;27.30;19.87;;;;;;;7.63;100.00;100724.91;5298430;28;20020;-72
2022/11/15 00:44:55;;;;;;;24.60;17.80;;;;;;;7.54;100.00;100697.53;5295996;28;20035;-73
2022/11/15 00:47:27;;;;;;;29.27;19.80;;;;;;;7.67;100.00;100710.81;5297199;28;20101;-72
2022/11/15 00:49:58;;;;;;;26.67;18.97;;;;;;;7.68;100.00;100711.66;5298316;28;20024;-72
2022/11/15 00:52:29;;;;;;;29.60;18.50;;;;;;;7.70;100.00;100705.44;5298548;28;20703;-72
2022/11/15 00:55:01;;;;;;;31.10;20.20;;;;;;;7.73;100.00;100709.66;5297333;28;20423;-73
2022/11/15 00:57:32;;;;;;;25.70;19.93;;;;;;;7.75;100.00;100698.22;5298114;28;20479;-74
2022/11/15 01:00:04;;;;;;;31.30;19.73;;;;;;;7.81;100.00;100704.06;5297512;28;20467;-72
2022/11/15 01:02:35;;;;;;;24.63;17.97;;;;;;;7.82;100.00;100698.75;5298242;28;20573;-72
2022/11/15 01:05:07;;;;;;;29.97;19.57;;;;;;;7.83;100.00;100704.81;5300829;28;20456;-73
2022/11/15 01:07:39;;;;;;;24.40;19.53;;;;;;;7.80;100.00;100695.38;5299239;28;20398;-73
2022/11/15 01:10:10;;;;;;;23.77;19.27;;;;;;;7.90;100.00;100706.22;5300181;28;20039;-72
2022/11/15 01:12:41;;;;;;;23.43;18.70;;;;;;;7.96;100.00;100707.63;5296514;28;20040;-73
2022/11/15 01:15:12;;;;;;;25.07;19.23;;;;;;;7.96;100.00;100700.66;5297677;28;20039;-72
2022/11/15 01:17:44;;;;;;;27.13;19.40;;;;;;;8.01;100.00;100702.22;5297628;28;20030;-72
2022/11/15 01:20:15;;;;;;;23.27;18.63;;;;;;;7.95;100.00;100688.56;5298039;28;20473;-73
2022/11/15 01:22:46;;;;;;;24.77;18.67;;;;;;;7.96;100.00;100673.72;5295747;28;20032;-74
2022/11/15 01:25:18;;;;;;;24.10;19.53;;;;;;;7.98;100.00;100680.56;5298111;28;20474;-73
2022/11/15 01:27:49;;;;;;;25.07;18.63;;;;;;;8.09;100.00;100684.38;5296569;28;20035;-72
2022/11/15 01:30:20;;;;;;;24.20;18.30;;;;;;;8.07;100.00;100676.66;5297569;28;20466;-72
2022/11/15 01:32:51;;;;;;;21.70;18.30;;;;;;;8.10;100.00;100679.09;5297441;28;20031;-73
2022/11/15 01:35:23;;;;;;;25.50;18.93;;;;;;;8.13;100.00;100675.50;5297598;28;20107;-72
2022/11/15 01:37:54;;;;;;;25.37;18.20;;;;;;;8.18;100.00;100675.25;5297166;28;20020;-72
2022/11/15 01:40:26;;;;;;;24.07;18.47;;;;;;;8.11;100.00;100657.31;5296239;28;20058;-72
2022/11/15 01:42:57;;;;;;;26.47;19.03;;;;;;;8.18;100.00;100673.47;5295518;28;20426;-72
2022/11/15 01:45:28;;;;;;;24.50;19.07;;;;;;;8.20;100.00;100678.63;5297592;28;20127;-73
2022/11/15 01:47:59;;;;;;;22.93;19.33;;;;;;;8.20;100.00;100670.78;5299223;28;20101;-73
2022/11/15 01:50:32;;;;;;;25.80;18.83;;;;;;;8.21;100.00;100682.91;5297464;28;20122;-73
2022/11/15 01:53:03;;;;;;;26.97;19.97;;;;;;;8.31;100.00;100667.59;5298862;28;20031;-73
2022/11/15 01:55:35;;;;;;;27.03;19.37;;;;;;;8.25;100.00;100666.19;5298495;28;20471;-73
2022/11/15 01:58:07;;;;;;;28.73;20.43;;;;;;;8.32;100.00;100667.53;5296160;28;20024;-73
2022/11/15 02:00:38;;;;;;;23.50;18.73;;;;;;;8.42;100.00;100674.84;5296215;28;20481;-73
2022/11/15 02:03:10;;;;;;;26.87;19.27;;;;;;;8.45;100.00;100665.09;5296962;28;20024;-74
2022/11/15 02:05:43;;;;;;;23.97;19.37;;;;;;;8.47;100.00;100660.66;5294845;28;20072;-72
2022/11/15 02:08:19;;;;;;;29.07;19.30;;;;;;;8.52;100.00;100664.78;5295183;28;20066;-72
2022/11/15 02:10:50;;;;;;;27.57;21.37;;;;;;;8.60;100.00;100665.22;5294403;28;20122;-72
2022/11/15 02:13:22;;;;;;;24.93;20.23;;;;;;;8.56;100.00;100655.88;5263513;22;20217;-71
2022/11/15 02:16:03;;;;;;;23.50;20.67;;;;;;;8.59;100.00;100664.38;5216544;28;20026;-72
2022/11/15 02:18:41;;;;;;;23.17;19.93;;;;;;;8.62;100.00;100655.56;5212844;28;20083;-72
2022/11/15 02:21:33;;;;;;;25.00;19.97;;;;;;;8.62;100.00;100650.34;5200643;28;20034;-72
2022/11/15 02:24:10;;;;;;;25.53;21.00;;;;;;;8.70;100.00;100657.72;5192028;28;20026;-72
2022/11/15 02:27:06;;;;;;;24.77;19.27;;;;;;;8.74;100.00;100654.03;5192039;28;20117;-73
2022/11/15 02:30:00;;;;;;;30.70;20.03;;;;;;;8.70;100.00;100648.13;5226158;28;20030;-71
2022/11/15 02:32:43;;;;;;;27.73;21.63;;;;;;;8.81;100.00;100654.53;5211074;28;20112;-72
2022/11/15 02:35:29;;;;;;;24.47;20.53;;;;;;;8.81;100.00;100651.94;5217453;28;20484;-71
2022/11/15 02:38:40;;;;;;;31.37;20.33;;;;;;;8.82;100.00;100638.78;5211970;28;20026;-72
2022/11/15 02:41:18;;;;;;;25.60;21.37;;;;;;;8.83;100.00;100642.25;5200740;28;20077;-72
2022/11/15 02:43:58;;;;;;;25.47;21.27;;;;;;;8.90;100.00;100645.34;5205741;28;20053;-72
2022/11/15 02:49:32;;;;;;;26.17;21.60;;;;;;;8.87;100.00;100635.91;5192315;28;20054;-72
2022/11/15 02:52:03;;;;;;;27.97;21.77;;;;;;;8.85;100.00;100619.47;5206833;28;20089;-72
2022/11/15 02:54:35;;;;;;;29.40;24.57;;;;;;;9.01;100.00;100634.28;5191527;28;20030;-72
2022/11/15 02:57:19;;;;;;;32.60;23.00;;;;;;;9.01;100.00;100634.28;5192174;28;20030;-72
2022/11/15 03:00:08;;;;;;;32.00;23.70;;;;;;;9.02;100.00;100621.16;5192461;28;20053;-72
2022/11/15 03:02:49;;;;;;;30.70;22.30;;;;;;;9.03;100.00;100616.75;5190977;28;20030;-72
2022/11/15 03:05:39;;;;;;;34.10;21.73;;;;;;;9.12;100.00;100629.28;5201316;28;20037;-73
2022/11/15 03:08:16;;;;;;;30.93;22.33;;;;;;;9.10;100.00;100623.31;5192657;28;20034;-73
2022/11/15 03:10:50;;;;;;;28.33;22.87;;;;;;;9.11;100.00;100614.53;5191178;28;20523;-74
2022/11/15 03:13:45;;;;;;;30.45;21.60;;;;;;;9.08;100.00;100614.72;5206104;28;20050;-72
2022/11/15 03:16:39;;;;;;;30.73;21.47;;;;;;;9.14;100.00;100614.38;5204012;28;20046;-73
2022/11/15 03:19:17;;;;;;;29.30;21.60;;;;;;;9.20;100.00;100621.00;5206222;28;20052;-73
2022/11/15 03:21:50;;;;;;;26.20;21.33;;;;;;;9.17;100.00;100622.03;5200097;28;20026;-74
2022/11/15 03:24:25;;;;;;;25.40;21.10;;;;;;;9.18;100.00;100618.47;5211970;28;20125;-72
2022/11/15 03:27:00;;;;;;;28.67;23.07;;;;;;;9.23;100.00;100625.22;5212002;28;20436;-71
2022/11/15 03:29:42;;;;;;;26.80;21.77;;;;;;;9.18;100.00;100618.47;5212256;28;20045;-72
2022/11/15 03:32:21;;;;;;;29.07;22.17;;;;;;;9.26;100.00;100611.97;5218574;28;20040;-72
2022/11/15 03:34:58;;;;;;;30.87;22.70;;;;;;;9.27;100.00;100621.47;5217697;28;20113;-72
2022/11/15 03:37:49;;;;;;;29.10;21.37;;;;;;;9.24;100.00;100621.66;5218270;28;20120;-72
2022/11/15 03:40:27;;;;;;;30.27;22.73;;;;;;;9.31;100.00;100620.38;5218401;28;20022;-72
2022/11/15 03:43:15;;;;;;;34.20;24.30;;;;;;;9.33;100.00;100623.75;5217664;28;20033;-72
2022/11/15 03:46:04;;;;;;;28.63;22.87;;;;;;;9.37;100.00;100612.22;5218198;28;20025;-72
2022/11/15 03:48:42;;;;;;;32.60;23.47;;;;;;;9.38;100.00;100620.88;5217790;28;20463;-72
2022/11/15 03:51:13;;;;;;;34.17;24.63;;;;;;;9.36;100.00;100617.50;5218552;28;20030;-72
2022/11/15 03:53:45;;;;;;;35.30;24.77;;;;;;;9.38;100.00;100628.72;5217081;28;20507;-73
2022/11/15 03:56:16;;;;;;;35.67;25.23;;;;;;;9.37;100.00;100629.66;5210626;28;20030;-72
2022/11/15 03:58:48;;;;;;;30.60;24.57;;;;;;;9.42;100.00;100627.59;5217162;28;20041;-73
2022/11/15 04:01:19;;;;;;;34.60;26.93;;;;;;;9.46;100.00;100620.44;5217771;28;20137;-74
2022/11/15 04:03:50;;;;;;;36.87;26.60;;;;;;;9.44;100.00;100615.28;5218135;28;20030;-73
2022/11/15 04:06:22;;;;;;;35.77;25.83;;;;;;;9.37;100.00;100614.81;5218501;28;20022;-72
2022/11/15 04:08:53;;;;;;;32.20;26.33;;;;;;;9.48;100.00;100615.97;5217882;28;20034;-72
2022/11/15 04:11:24;;;;;;;34.57;25.77;;;;;;;9.38;100.00;100595.56;5218221;28;20028;-72
2022/11/15 04:13:55;;;;;;;37.67;25.80;;;;;;;9.52;100.00;100613.06;5216179;28;20104;-72
2022/11/15 04:16:27;;;;;;;37.50;24.97;;;;;;;9.48;100.00;100613.34;5218430;28;20037;-72
2022/11/15 04:24:38;;;;;;;35.33;25.30;;;;;;;9.49;100.00;100604.56;5217582;28;20084;-72
2022/11/15 04:27:09;;;;;;;36.20;25.70;;;;;;;9.51;100.00;100608.75;5199901;28;20057;-73
2022/11/15 04:29:41;;;;;;;39.57;25.43;;;;;;;9.51;100.00;100600.91;5232798;28;20030;-73
2022/11/15 04:32:12;;;;;;;35.20;26.47;;;;;;;9.55;100.00;100609.41;5217640;28;20042;-73
2022/11/15 04:34:43;;;;;;;32.37;23.80;;;;;;;9.48;100.00;100605.50;5217760;28;20029;-73
2022/11/15 04:37:15;;;;;;;33.93;24.30;;;;;;;9.53;100.00;100608.69;5217947;28;20030;-73
2022/11/15 04:39:47;;;;;;;37.73;25.23;;;;;;;9.53;100.00;100619.97;5204185;28;20604;-73
2022/11/15 04:42:18;;;;;;;29.90;23.20;;;;;;;9.57;100.00;100623.25;5213478;28;20091;-74
2022/11/15 04:44:49;;;;;;;35.47;26.03;;;;;;;9.58;100.00;100622.31;5230816;28;20113;-73
2022/11/15 04:47:21;;;;;;;31.93;25.17;;;;;;;9.53;100.00;100619.97;5220348;28;20030;-71
2022/11/15 04:49:52;;;;;;;29.13;24.33;;;;;;;9.55;100.00;100612.88;5234411;28;20052;-72
2022/11/15 04:52:23;;;;;;;35.80;23.37;;;;;;;9.55;100.00;100612.88;5216305;28;20034;-72
2022/11/15 04:54:54;;;;;;;36.77;25.00;;;;;;;9.56;100.00;100616.34;5220046;28;20033;-72
2022/11/15 04:57:26;;;;;;;36.70;24.07;;;;;;;9.60;100.00;100619.63;5213815;28;20088;-72
2022/11/15 04:59:57;;;;;;;32.60;24.13;;;;;;;9.59;100.00;100615.31;5227398;28;20053;-72
2022/11/15 05:04:18;;;;;;;28.80;23.87;;;;;;;9.61;100.00;100609.06;5214086;28;20085;-72
2022/11/15 05:05:19;;;;;;;31.70;23.63;;;;;;;9.61;100.00;100610.84;5213005;28;20373;-72
2022/11/15 05:07:51;;;;;;;29.93;22.77;;;;;;;9.54;100.00;100607.75;5213354;28;20033;-73
2022/11/15 05:10:22;;;;;;;30.77;23.60;;;;;;;9.55;100.00;100604.19;5214032;28;20042;-72
2022/11/15 05:12:53;;;;;;;31.27;24.97;;;;;;;9.60;100.00;100609.97;5232722;28;20041;-71
2022/11/15 05:15:25;;;;;;;30.53;22.47;;;;;;;9.62;100.00;100610.72;5222309;28;20026;-71
2022/11/15 05:18:00;;;;;;;31.17;24.37;;;;;;;9.64;100.00;100614.09;5195949;28;20117;-71
2022/11/15 05:20:31;;;;;;;29.20;22.30;;;;;;;9.67;100.00;100607.84;5214055;28;20037;-73
2022/11/15 05:23:02;;;;;;;32.97;22.17;;;;;;;9.64;100.00;100601.03;5213434;28;20033;-72
2022/11/15 05:25:35;;;;;;;31.40;22.80;;;;;;;9.68;100.00;100601.69;5213031;28;20030;-72
2022/11/15 05:28:07;;;;;;;32.53;23.77;;;;;;;9.70;100.00;100605.06;5212630;28;20060;-73
2022/11/15 05:30:38;;;;;;;28.63;22.30;;;;;;;9.66;100.00;100596.56;5213032;28;20025;-72
2022/11/15 05:33:09;;;;;;;35.23;24.07;;;;;;;9.69;100.00;100592.91;5213657;28;20022;-72
2022/11/15 05:35:45;;;;;;;29.87;21.73;;;;;;;9.70;100.00;100598.97;5228501;28;20037;-72
2022/11/15 05:38:16;;;;;;;34.93;23.90;;;;;;;9.71;100.00;100600.66;5213139;28;20042;-72
2022/11/15 05:40:47;;;;;;;28.00;21.97;;;;;;;9.71;100.00;100585.81;5213085;28;20030;-72
2022/11/15 05:43:19;;;;;;;31.30;22.27;;;;;;;9.73;100.00;100590.94;5211690;28;20026;-73
2022/11/15 05:45:50;;;;;;;34.23;22.87;;;;;;;9.72;100.00;100589.28;5212805;28;20116;-72
2022/11/15 05:48:21;;;;;;;25.27;22.07;;;;;;;9.71;100.00;100588.41;5213103;28;20085;-73
2022/11/15 05:50:53;;;;;;;27.73;21.00;;;;;;;9.64;100.00;100590.56;5212383;28;20038;-73
2022/11/15 05:53:25;;;;;;;27.90;22.90;;;;;;;9.68;100.00;100599.94;5213627;28;20030;-72
2022/11/15 05:55:57;;;;;;;25.50;21.73;;;;;;;9.72;100.00;100603.16;5210559;28;20041;-73
2022/11/15 05:58:28;;;;;;;25.50;20.97;;;;;;;9.71;100.00;100604.13;5211051;28;20029;-72
2022/11/15 06:01:00;;;;;;;33.30;22.40;;;;;;;9.67;100.00;100594.75;5206238;28;20026;-73
2022/11/15 06:03:31;;;;;;;28.27;21.13;;;;;;;9.73;100.00;100599.63;5212386;28;20029;-73
2022/11/15 06:06:02;;;;;;;28.83;22.10;;;;;;;9.76;100.00;100604.69;5208680;28;20041;-72
2022/11/15 06:08:34;;;;;;;26.50;21.77;;;;;;;9.83;100.00;100614.78;5200989;28;20493;-72
2022/11/15 06:11:07;;;;;;;27.37;21.93;;;;;;;9.68;100.00;100614.75;5205253;28;20045;-72
2022/11/15 06:13:38;;;;;;;29.63;21.97;;;;;;;9.82;100.00;100613.94;5210840;28;20162;-71
2022/11/15 06:16:09;;;;;;;29.60;22.73;;;;;;;9.82;100.00;100627.00;5212897;28;20072;-72
2022/11/15 06:18:40;;;;;;;30.03;23.20;;;;;;;9.80;100.00;100616.66;5195841;28;20099;-72
2022/11/15 06:21:12;;;;;;;30.50;23.60;;;;;;;9.85;100.00;100624.22;5211295;28;20029;-72
2022/11/15 06:23:43;;;;;;;27.97;21.63;;;;;;;9.86;100.00;100622.44;5214730;28;20018;-72
2022/11/15 06:26:14;;;;;;;30.87;22.67;;;;;;;9.84;100.00;100612.06;5195842;28;20033;-72
2022/11/15 06:28:46;;;;;;;30.07;23.13;;;;;;;9.86;100.00;100623.25;5210609;28;20037;-73
2022/11/15 06:31:17;;;;;;;30.73;23.60;;;;;;;9.83;100.00;100620.03;5213237;28;20037;-74
2022/11/15 06:33:49;;;;;;;28.97;22.97;;;;;;;9.90;100.00;100622.16;5199354;28;20041;-75
2022/11/15 06:36:20;;;;;;;29.23;21.67;;;;;;;9.73;100.00;100604.03;5213273;28;20064;-74
2022/11/15 06:38:52;;;;;;;30.07;20.30;;;;;;;9.70;100.00;100604.22;5213404;28;20033;-75
2022/11/15 06:41:23;;;;;;;23.03;20.00;;;;;;;9.87;100.00;100626.72;5208512;28;20041;-75
2022/11/15 06:43:54;;;;;;;25.70;18.60;;;;;;;9.83;100.00;100623.44;5214643;28;20030;-74
2022/11/15 06:46:26;;;;;;;23.30;19.10;;;;;;;9.82;100.00;100628.78;5198861;28;20493;-74
2022/11/15 06:48:57;;;;;;;27.47;18.00;;;;;;;9.75;100.00;100620.47;5220287;28;20041;-74
2022/11/15 06:51:28;;;;;;;25.60;17.30;;;;;;;9.82;100.00;100637.47;5212578;28;20041;-74
2022/11/15 06:54:00;;;;;;;18.47;15.47;;;;;;;9.83;100.00;100641.75;5211706;28;20124;-74
2022/11/15 06:56:33;;;;;;;22.27;17.47;;;;;;;9.82;100.00;100642.72;5212499;28;20034;-74
2022/11/15 06:59:04;;;;;;;23.07;16.37;;;;;;;9.82;100.00;100645.31;5193377;28;20026;-74
2022/11/15 07:01:35;;;;;;;21.73;16.63;;;;;;;9.80;100.00;100647.19;5211893;28;20041;-72
2022/11/15 07:04:07;;;;;;;21.57;15.67;;;;;;;9.83;100.00;100649.59;5213455;28;20444;-73
2022/11/15 07:06:38;;;;;;;23.87;17.23;;;;;;;9.82;100.00;100642.72;5210783;28;20092;-73
2022/11/15 07:09:09;;;;;;;24.63;16.40;;;;;;;9.83;100.00;100652.22;5207898;28;20030;-73
2022/11/15 07:11:40;;;;;;;20.73;15.90;;;;;;;9.78;100.00;100649.91;5209230;28;20084;-75
2022/11/15 07:14:12;;;;;;;20.40;15.70;;;;;;;9.77;100.00;100652.59;5206599;28;20038;-72
2022/11/15 07:16:43;;;;;;;25.33;16.13;;;;;;;9.77;100.00;100661.28;5209072;28;20055;-73
2022/11/15 07:19:14;;;;;;;24.73;16.33;;;;;;;9.78;100.00;100660.34;5209785;28;20037;-72
2022/11/15 07:21:46;;;;;;;26.03;16.97;;;;;;;9.84;100.00;100663.53;5211074;28;20160;-72
2022/11/15 07:24:17;;;;;;;24.63;16.37;;;;;;;9.84;100.00;100666.16;5205950;28;20026;-73
2022/11/15 07:26:49;;;;;;;26.33;16.97;;;;;;;9.79;100.00;100653.34;5208015;28;20133;-75
2022/11/15 07:29:20;;;;;;;27.83;17.37;;;;;;;9.86;100.00;100665.13;5208700;28;20029;-72
2022/11/15 07:31:51;;;;;;;24.07;19.30;;;;;;;9.79;100.00;100655.97;5210027;28;20795;-73
2022/11/15 07:34:23;;;;;;;22.33;17.63;;;;;;;9.87;100.00;100668.59;5211387;28;20096;-73
2022/11/15 07:36:54;;;;;;;25.73;18.10;;;;;;;9.82;100.00;100655.78;5209920;28;20064;-73
2022/11/15 07:39:26;;;;;;;24.43;16.60;;;;;;;9.82;100.00;100658.41;5230501;28;20479;-73
2022/11/15 07:44:47;;;;;;;18.20;16.03;;;;;;;9.91;100.00;100643.94;5211021;28;20077;-74
2022/11/15 07:47:18;;;;;;;21.33;16.10;;;;;;;9.88;100.00;100638.88;5211361;28;20057;-73
2022/11/15 07:49:50;;;;;;;18.43;15.10;;;;;;;9.92;100.00;100656.06;5209966;28;20037;-72
2022/11/15 07:52:21;;;;;;;21.73;15.80;;;;;;;9.89;100.00;100644.03;5211497;28;20057;-72
2022/11/15 07:54:52;;;;;;;22.63;17.00;;;;;;;9.93;100.00;100648.13;5211301;28;20538;-72
2022/11/15 07:57:23;;;;;;;22.67;16.00;;;;;;;9.98;100.00;100644.41;5210482;28;20392;-73
2022/11/15 07:59:55;;;;;;;18.60;14.93;;;;;;;9.98;100.00;100647.88;5193198;28;20573;-73
2022/11/15 08:02:26;;;;;;;19.97;15.43;;;;;;;9.96;100.00;100648.88;5211322;28;20049;-73
2022/11/15 08:04:58;;;;;;;23.97;15.90;;;;;;;9.97;100.00;100654.00;5214891;28;20080;-73
2022/11/15 08:07:30;;;;;;;20.60;16.53;;;;;;;10.00;100.00;100658.22;5211269;28;20050;-73
2022/11/15 08:10:03;;;;;;;18.23;14.67;;;;;;;10.04;100.00;100659.72;5210296;28;20657;-72
2022/11/15 08:12:35;;;;;;;21.30;14.73;;;;;;;10.06;100.00;100668.31;5209699;28;20052;-72
2022/11/15 08:15:06;;;;;;;16.33;13.47;;;;;;;10.03;100.00;100660.66;5211229;28;20038;-73
2022/11/15 08:17:37;;;;;;;19.87;13.80;;;;;;;10.03;100.00;100658.03;5212742;28;20079;-73
2022/11/15 08:20:09;;;;;;;17.20;11.40;;;;;;;10.09;100.00;100657.66;5215156;28;21836;-72
2022/11/15 08:22:41;;;;;;;15.80;12.10;;;;;;;10.03;100.00;100661.50;5214916;28;20487;-72
2022/11/15 08:25:12;;;;;;;19.20;13.13;;;;;;;10.05;100.00;100656.19;5214431;28;20084;-72
2022/11/15 08:27:44;;;;;;;11.57;10.30;;;;;;;10.03;100.00;100666.75;5213595;28;20108;-72
2022/11/15 08:30:15;;;;;;;17.73;10.53;;;;;;;10.05;100.00;100664.03;5219907;28;20101;-72
2022/11/15 08:32:48;;;;;;;13.70;9.63;;;;;;;10.04;100.00;100652.72;5218875;28;20084;-72
2022/11/15 08:35:20;;;;;;;14.73;9.83;;;;;;;10.12;100.00;100651.41;5215506;28;20034;-72
2022/11/15 08:37:54;;;;;;;10.93;8.27;;;;;;;10.17;100.00;100649.34;5197758;28;20655;-73
2022/11/15 08:40:26;;;;;;;12.60;8.07;;;;;;;10.13;100.00;100650.47;5214411;28;20021;-72
2022/11/15 08:42:58;;;;;;;17.50;11.53;;;;;;;10.10;100.00;100642.81;5213015;28;20033;-71
2022/11/15 08:45:31;;;;;;;16.17;8.00;;;;;;;10.09;100.00;100651.59;5214455;28;20077;-72
2022/11/15 08:48:03;;;;;;;12.07;8.67;;;;;;;10.14;100.00;100632.03;5196050;28;20030;-72
2022/11/15 08:50:34;;;;;;;14.83;9.10;;;;;;;10.12;100.00;100631.28;5217971;28;20030;-72
2022/11/15 08:53:08;;;;;;;12.63;7.33;;;;;;;10.20;100.00;100622.13;5197022;28;20084;-71
2022/11/15 08:55:40;;;;;;;16.30;7.90;;;;;;;10.33;100.00;100627.47;5214265;28;20084;-71
2022/11/15 08:58:11;;;;;;;10.97;7.33;;;;;;;10.41;100.00;100625.19;5196193;28;20511;-72
2022/11/15 09:00:43;;;;;;;10.50;7.07;;;;;;;10.37;100.00;100624.53;5228627;28;20068;-72
2022/11/15 09:03:15;;;;;;;13.13;6.63;;;;;;;10.44;100.00;100626.81;5214243;28;20040;-72
2022/11/15 09:05:46;;;;;;;7.20;5.83;;;;;;;10.49;100.00;100622.16;5213586;28;20029;-72
2022/11/15 09:08:18;;;;;;;11.27;5.90;;;;;;;10.58;100.00;100615.44;5214105;28;20372;-72
2022/11/15 09:10:49;;;;;;;9.70;5.60;;;;;;;10.52;100.00;100601.81;5213532;28;20034;-73
2022/11/15 09:13:20;;;;;;;9.37;5.57;;;;;;;10.56;100.00;100602.47;5213242;28;20544;-72
2022/11/15 09:15:51;;;;;;;7.40;4.90;;;;;;;10.59;100.00;100599.66;5213481;28;20105;-73
2022/11/15 09:18:23;;;;;;;11.03;5.97;;;;;;;10.62;100.00;100583.75;5214204;28;20049;-74
2022/11/15 09:20:58;;;;;;;9.63;5.50;;;;;;;10.77;100.00;100584.53;5199212;28;20045;-73
2022/11/15 09:23:29;;;;;;;11.17;7.43;;;;;;;11.75;100.00;100594.72;5193902;28;20037;-69
2022/11/15 09:26:02;;;;;;;25.20;18.37;;;;;;;12.51;100.00;100599.13;5193152;28;20470;-72
2022/11/15 09:28:36;;;;;;;5.37;4.40;;;;;;;12.60;100.00;100602.03;5191930;28;20042;-73
2022/11/15 09:31:07;;;;;;;10.43;5.53;;;;;;;12.29;100.00;100590.16;5192245;28;20489;-72
2022/11/15 09:33:39;;;;;;;6.07;4.17;;;;;;;12.08;100.00;100588.06;5192786;28;20110;-72
2022/11/15 09:36:11;;;;;;;3.90;2.47;;;;;;;12.00;100.00;100590.41;5193038;28;20390;-71
2022/11/15 09:38:42;;;;;;;9.20;5.10;;;;;;;12.07;100.00;100589.03;5192736;28;20041;-71
2022/11/15 09:41:13;;;;;;;8.90;3.83;;;;;;;11.97;100.00;100595.88;5192299;28;20469;-71
2022/11/15 09:44:13;;;;;;;5.53;2.63;;;;;;;11.93;100.00;100590.00;5192198;28;20461;-72
2022/11/15 09:46:55;;;;;;;10.50;2.60;;;;;;;12.01;100.00;100580.75;5193216;28;20485;-71
2022/11/15 09:49:26;;;;;;;6.57;2.53;;;;;;;12.09;100.00;100586.31;5209477;28;20033;-71
2022/11/15 09:51:58;;;;;;;5.10;2.00;;;;;;;12.10;100.00;100583.59;5215626;28;20029;-72
2022/11/15 09:54:41;;;;;;;4.70;2.00;;;;;;;12.09;100.00;100581.94;5213131;28;20038;-71
2022/11/15 09:57:32;;;;;;;4.20;1.97;;;;;;;11.88;100.00;100586.00;5220649;28;20152;-72
2022/11/15 10:00:09;;;;;;;6.40;1.80;;;;;;;11.83;100.00;100571.41;5215114;28;20026;-73
2022/11/15 10:03:04;;;;;;;3.23;1.40;;;;;;;11.92;100.00;100572.56;5233949;28;20056;-72
2022/11/15 10:05:51;;;;;;;2.85;1.58;;;;;;;11.98;100.00;100573.91;5203059;28;20692;-73
2022/11/15 10:08:55;;;;;;;3.77;1.33;;;;;;;11.96;100.00;100581.91;5213554;28;20030;-72
2022/11/15 10:11:30;;;;;;;3.67;1.23;;;;;;;11.95;100.00;100579.41;5194809;28;20041;-72
2022/11/15 10:14:04;;;;;;;5.33;2.63;;;;;;;11.89;100.00;100577.19;5212368;28;20081;-72
2022/11/15 10:17:13;;;;;;;5.97;2.40;;;;;;;11.89;100.00;100569.31;5217191;28;20025;-73
2022/11/15 10:19:55;;;;;;;3.17;1.20;;;;;;;11.77;100.00;100571.00;5208201;28;20091;-72
2022/11/15 10:22:28;;;;;;;5.83;1.53;;;;;;;11.76;100.00;100575.44;5226629;28;20046;-73
2022/11/15 10:25:02;;;;;;;6.70;1.60;;;;;;;11.84;100.00;100573.09;5211972;28;20044;-71
2022/11/15 10:27:34;;;;;;;3.83;1.73;;;;;;;11.65;100.00;100552.56;5215540;28;20488;-71
2022/11/15 10:30:12;;;;;;;5.73;1.40;;;;;;;11.70;100.00;100555.69;5221672;28;20032;-73
2022/11/15 10:32:46;;;;;;;5.87;1.60;;;;;;;11.62;100.00;100553.59;5224286;28;20021;-71
2022/11/15 10:35:29;;;;;;;3.25;1.00;;;;;;;11.76;100.00;100543.09;5195688;28;20549;-71
2022/11/15 10:38:09;;;;;;;4.50;1.40;;;;;;;11.64;100.00;100536.94;5215821;28;20026;-72
2022/11/15 10:40:41;;;;;;;6.43;1.67;;;;;;;11.69;100.00;100542.69;5225628;28;20105;-70
2022/11/15 10:43:16;;;;;;;6.50;1.70;;;;;;;11.77;100.00;100540.38;5225705;28;20489;-72
2022/11/15 10:45:49;;;;;;;6.27;2.30;;;;;;;11.72;100.00;100518.88;5211905;28;20034;-73
2022/11/15 10:48:23;;;;;;;6.40;1.73;;;;;;;11.80;100.00;100528.84;5212592;28;20026;-74
2022/11/15 10:50:55;;;;;;;9.02;2.08;;;;;;;11.70;100.00;100520.75;5207825;28;20396;-74
2022/11/15 10:53:41;;;;;;;5.13;1.40;;;;;;;11.74;100.00;100509.09;5206076;28;20044;-74
2022/11/15 10:56:17;;;;;;;4.70;1.43;;;;;;;11.86;100.00;100518.75;5183634;28;20156;-74
2022/11/15 10:58:54;;;;;;;5.80;1.63;;;;;;;11.91;100.00;100521.03;5202395;28;20034;-75
2022/11/15 11:01:29;;;;;;;8.10;1.47;;;;;;;12.03;100.00;100511.44;5201887;28;20476;-74
2022/11/15 11:04:06;;;;;;;3.73;1.43;;;;;;;12.07;100.00;100509.44;5201585;28;20038;-74
2022/11/15 11:06:59;;;;;;;4.00;1.47;;;;;;;12.10;100.00;100509.25;5201964;28;20041;-78
2022/11/15 11:09:35;;;;;;;5.07;1.80;;;;;;;12.02;100.00;100501.06;5203106;28;20037;-73
2022/11/15 11:12:11;;;;;;;5.10;1.60;;;;;;;12.05;100.00;100499.06;5202083;28;20042;-71
2022/11/15 11:14:42;;;;;;;5.37;1.90;;;;;;;11.96;100.00;100491.81;5185123;28;20072;-73
2022/11/15 11:17:29;;;;;;;9.10;1.60;;;;;;;12.02;100.00;100483.53;5203042;28;20465;-72
2022/11/15 11:20:03;;;;;;;6.30;1.20;;;;;;;12.05;100.00;100485.09;5202004;28;20034;-73
2022/11/15 11:22:54;;;;;;;7.53;2.97;;;;;;;12.12;100.00;100477.63;5201952;28;20038;-73
2022/11/15 11:25:38;;;;;;;7.67;2.37;;;;;;;12.06;100.00;100469.22;5184224;28;20034;-73
2022/11/15 11:28:50;;;;;;;6.53;1.17;;;;;;;12.00;100.00;100468.81;5202246;28;20045;-70
2022/11/15 11:31:30;;;;;;;6.03;1.60;;;;;;;11.96;100.00;100455.09;5202087;28;20144;-76
2022/11/15 11:34:44;;;;;;;7.57;2.07;;;;;;;12.01;100.00;100452.16;5201693;28;20034;-71
2022/11/15 11:37:32;;;;;;;5.70;1.73;;;;;;;12.05;100.00;100449.19;5184270;28;20488;-72
2022/11/15 11:40:06;;;;;;;5.13;1.53;;;;;;;12.02;100.00;100446.78;5183789;28;20552;-71
2022/11/15 11:43:14;;;;;;;6.80;1.50;;;;;;;12.14;100.00;100433.75;5199677;28;20084;-71
2022/11/15 11:46:14;;;;;;;3.03;1.60;;;;;;;12.12;100.00;100417.25;5202037;28;20399;-71
2022/11/15 11:48:51;;;;;;;6.13;1.60;;;;;;;12.20;100.00;100426.25;5183724;28;20022;-72
2022/11/15 11:51:38;;;;;;;4.07;1.53;;;;;;;12.14;100.00;100429.34;5203732;28;20041;-73
2022/11/15 11:54:35;;;;;;;8.67;2.70;;;;;;;12.32;100.00;100418.44;5188298;28;20037;-72
2022/11/15 11:57:17;;;;;;;6.50;1.70;;;;;;;12.24;100.00;100412.88;5187598;28;20528;-72
2022/11/15 12:00:03;;;;;;;4.97;1.17;;;;;;;12.26;100.00;100409.22;5206332;28;20034;-75